sensor_id;sensor_type;location;lat;lon;timestamp;pressure;altitude;pressure_sealevel;temperature;humidity
52032;BME280;38044;45.148;39.604;2022-10-16T00:02:00;101428.38;;;8.50;61.40
52032;BME280;38044;45.148;39.604;2022-10-16T00:04:26;101577.25;;;9.32;61.53
52032;BME280;38044;45.148;39.604;2022-10-16T00:06:51;101688.81;;;9.87;61.75
52032;BME280;38044;45.148;39.604;2022-10-16T00:09:17;101704.13;;;9.92;61.71
52032;BME280;38044;45.148;39.604;2022-10-16T00:11:43;101669.34;;;9.70;61.69
52032;BME280;38044;45.148;39.604;2022-10-16T00:14:12;101694.44;;;9.86;61.96
52032;BME280;38044;45.148;39.604;2022-10-16T00:16:38;101529.94;;;8.78;61.72
52032;BME280;38044;45.148;39.604;2022-10-16T00:19:05;101572.44;;;8.97;61.86
52032;BME280;38044;45.148;39.604;2022-10-16T00:21:33;101673.22;;;9.52;62.03
52032;BME280;38044;45.148;39.604;2022-10-16T00:24:05;101678.91;;;9.56;62.32
52032;BME280;38044;45.148;39.604;2022-10-16T00:26:34;101697.00;;;9.70;62.22
52032;BME280;38044;45.148;39.604;2022-10-16T00:29:00;101657.88;;;9.42;62.23
52032;BME280;38044;45.148;39.604;2022-10-16T00:31:27;101693.75;;;9.68;62.54
52032;BME280;38044;45.148;39.604;2022-10-16T00:33:53;101702.81;;;9.57;62.61
52032;BME280;38044;45.148;39.604;2022-10-16T00:36:22;101681.78;;;9.49;62.93
52032;BME280;38044;45.148;39.604;2022-10-16T00:38:52;101695.81;;;9.56;62.74
52032;BME280;38044;45.148;39.604;2022-10-16T00:41:21;101690.66;;;9.50;62.93
52032;BME280;38044;45.148;39.604;2022-10-16T00:46:27;101581.91;;;8.77;63.09
52032;BME280;38044;45.148;39.604;2022-10-16T00:51:50;101712.47;;;9.58;63.18
52032;BME280;38044;45.148;39.604;2022-10-16T00:54:19;101705.53;;;9.62;62.80
52032;BME280;38044;45.148;39.604;2022-10-16T00:56:46;101699.78;;;9.48;63.30
52032;BME280;38044;45.148;39.604;2022-10-16T00:59:24;101708.13;;;9.52;63.59
52032;BME280;38044;45.148;39.604;2022-10-16T01:01:51;101510.53;;;8.17;63.46
52032;BME280;38044;45.148;39.604;2022-10-16T01:04:18;101678.38;;;9.27;63.95
52032;BME280;38044;45.148;39.604;2022-10-16T01:10:12;101703.53;;;9.47;63.69
52032;BME280;38044;45.148;39.604;2022-10-16T01:12:50;101663.88;;;9.22;64.14
52032;BME280;38044;45.148;39.604;2022-10-16T01:21:24;101710.91;;;9.35;64.65
52032;BME280;38044;45.148;39.604;2022-10-16T01:24:02;101704.25;;;9.38;64.66
52032;BME280;38044;45.148;39.604;2022-10-16T01:29:36;101584.63;;;8.55;65.09
52032;BME280;38044;45.148;39.604;2022-10-16T01:32:40;101696.97;;;9.33;64.93
52032;BME280;38044;45.148;39.604;2022-10-16T01:35:32;101690.06;;;9.15;65.11
52032;BME280;38044;45.148;39.604;2022-10-16T01:38:06;101680.94;;;9.11;65.22
52032;BME280;38044;45.148;39.604;2022-10-16T01:40:36;101508.41;;;7.97;65.57
52032;BME280;38044;45.148;39.604;2022-10-16T01:43:08;101695.44;;;9.15;65.76
52032;BME280;38044;45.148;39.604;2022-10-16T01:45:36;101712.72;;;9.24;65.59
52032;BME280;38044;45.148;39.604;2022-10-16T01:48:05;101672.13;;;9.16;65.82
52032;BME280;38044;45.148;39.604;2022-10-16T01:50:37;101544.91;;;8.25;65.89
52032;BME280;38044;45.148;39.604;2022-10-16T01:53:07;101648.47;;;8.86;66.02
52032;BME280;38044;45.148;39.604;2022-10-16T01:55:37;101568.00;;;8.31;66.05
52032;BME280;38044;45.148;39.604;2022-10-16T01:58:07;101708.34;;;9.18;66.28
52032;BME280;38044;45.148;39.604;2022-10-16T02:00:34;101655.72;;;8.85;66.23
52032;BME280;38044;45.148;39.604;2022-10-16T02:03:04;101552.94;;;8.25;66.64
52032;BME280;38044;45.148;39.604;2022-10-16T02:05:37;101702.50;;;9.21;66.85
52032;BME280;38044;45.148;39.604;2022-10-16T02:08:06;101556.97;;;8.28;66.70
52032;BME280;38044;45.148;39.604;2022-10-16T02:10:32;101704.84;;;9.18;66.85
52032;BME280;38044;45.148;39.604;2022-10-16T02:15:40;101688.16;;;9.11;66.93
52032;BME280;38044;45.148;39.604;2022-10-16T02:18:07;101577.16;;;8.35;66.96
52032;BME280;38044;45.148;39.604;2022-10-16T02:23:54;101690.22;;;9.03;67.21
52032;BME280;38044;45.148;39.604;2022-10-16T02:26:43;101715.06;;;9.16;67.39
52032;BME280;38044;45.148;39.604;2022-10-16T02:29:14;101714.47;;;9.14;67.54
52032;BME280;38044;45.148;39.604;2022-10-16T02:31:46;101714.78;;;9.17;67.83
52032;BME280;38044;45.148;39.604;2022-10-16T02:34:14;101720.88;;;9.13;68.03
52032;BME280;38044;45.148;39.604;2022-10-16T02:36:42;101665.28;;;8.76;67.94
52032;BME280;38044;45.148;39.604;2022-10-16T02:39:10;101555.13;;;8.06;68.13
52032;BME280;38044;45.148;39.604;2022-10-16T02:41:36;101714.19;;;9.10;68.21
52032;BME280;38044;45.148;39.604;2022-10-16T02:44:02;101714.19;;;9.10;68.48
52032;BME280;38044;45.148;39.604;2022-10-16T02:46:28;101535.47;;;7.96;68.41
52032;BME280;38044;45.148;39.604;2022-10-16T02:48:54;101672.03;;;8.84;68.70
52032;BME280;38044;45.148;39.604;2022-10-16T02:51:19;101535.75;;;7.99;68.41
52032;BME280;38044;45.148;39.604;2022-10-16T02:53:45;101567.03;;;8.16;68.48
52032;BME280;38044;45.148;39.604;2022-10-16T02:56:11;101714.69;;;9.07;68.67
52032;BME280;38044;45.148;39.604;2022-10-16T02:58:37;101664.94;;;8.72;68.98
52032;BME280;38044;45.148;39.604;2022-10-16T03:01:03;101661.72;;;8.70;68.57
52032;BME280;38044;45.148;39.604;2022-10-16T03:03:29;101613.75;;;8.47;68.93
52032;BME280;38044;45.148;39.604;2022-10-16T03:05:55;101475.69;;;7.68;68.91
52032;BME280;38044;45.148;39.604;2022-10-16T03:08:21;101619.34;;;8.67;68.99
52032;BME280;38044;45.148;39.604;2022-10-16T03:10:49;101672.94;;;9.16;68.93
52032;BME280;38044;45.148;39.604;2022-10-16T03:13:15;101706.38;;;9.36;68.57
52032;BME280;38044;45.148;39.604;2022-10-16T03:15:41;101493.38;;;8.18;68.24
52032;BME280;38044;45.148;39.604;2022-10-16T03:18:07;101601.41;;;9.00;68.40
52032;BME280;38044;45.148;39.604;2022-10-16T03:20:33;101724.78;;;9.86;68.38
52032;BME280;38044;45.148;39.604;2022-10-16T03:22:58;101714.31;;;9.85;67.99
52032;BME280;38044;45.148;39.604;2022-10-16T03:25:24;101695.47;;;9.80;67.82
52032;BME280;38044;45.148;39.604;2022-10-16T03:27:50;101672.84;;;9.70;67.91
52032;BME280;38044;45.148;39.604;2022-10-16T03:30:16;101568.22;;;9.06;68.25
52032;BME280;38044;45.148;39.604;2022-10-16T03:32:43;101694.94;;;9.83;68.71
52032;BME280;38044;45.148;39.604;2022-10-16T03:35:09;101697.06;;;9.81;68.84
52032;BME280;38044;45.148;39.604;2022-10-16T03:37:35;101718.38;;;9.92;68.96
52032;BME280;38044;45.148;39.604;2022-10-16T03:40:02;101661.97;;;9.55;69.00
52032;BME280;38044;45.148;39.604;2022-10-16T03:42:28;101566.81;;;8.98;69.42
52032;BME280;38044;45.148;39.604;2022-10-16T03:44:54;101525.81;;;8.71;69.46
52032;BME280;38044;45.148;39.604;2022-10-16T03:47:19;101461.22;;;8.18;69.28
52032;BME280;38044;45.148;39.604;2022-10-16T03:49:47;101355.25;;;7.68;69.54
52032;BME280;38044;45.148;39.604;2022-10-16T03:52:13;101616.38;;;9.23;69.86
52032;BME280;38044;45.148;39.604;2022-10-16T03:54:39;101718.13;;;9.94;69.54
52032;BME280;38044;45.148;39.604;2022-10-16T03:57:05;101567.22;;;9.17;69.62
52032;BME280;38044;45.148;39.604;2022-10-16T03:59:31;101758.06;;;10.23;69.51
52032;BME280;38044;45.148;39.604;2022-10-16T04:01:57;101481.06;;;8.71;69.62
52032;BME280;38044;45.148;39.604;2022-10-16T04:04:23;101727.78;;;10.32;69.75
52032;BME280;38044;45.148;39.604;2022-10-16T04:06:50;101499.59;;;9.10;69.47
52032;BME280;38044;45.148;39.604;2022-10-16T04:09:16;101715.69;;;10.98;68.37
52032;BME280;38044;45.148;39.604;2022-10-16T04:11:42;101720.88;;;11.45;67.11
52032;BME280;38044;45.148;39.604;2022-10-16T04:14:08;101742.97;;;11.73;66.23
52032;BME280;38044;45.148;39.604;2022-10-16T04:16:34;101708.25;;;11.77;65.77
52032;BME280;38044;45.148;39.604;2022-10-16T04:19:00;101730.31;;;12.09;65.39
52032;BME280;38044;45.148;39.604;2022-10-16T04:21:25;101546.97;;;11.34;64.55
52032;BME280;38044;45.148;39.604;2022-10-16T04:23:51;101717.72;;;13.19;62.78
52032;BME280;38044;45.148;39.604;2022-10-16T04:26:17;101742.63;;;13.85;61.06
52032;BME280;38044;45.148;39.604;2022-10-16T04:28:43;101680.25;;;13.52;60.30
52032;BME280;38044;45.148;39.604;2022-10-16T04:31:09;101743.06;;;14.26;59.75
52032;BME280;38044;45.148;39.604;2022-10-16T04:33:35;101687.59;;;14.29;58.57
52032;BME280;38044;45.148;39.604;2022-10-16T04:36:02;101747.13;;;14.77;58.09
52032;BME280;38044;45.148;39.604;2022-10-16T04:38:28;101727.53;;;15.23;57.16
52032;BME280;38044;45.148;39.604;2022-10-16T04:40:54;101748.22;;;16.17;54.92
52032;BME280;38044;45.148;39.604;2022-10-16T04:43:20;101729.94;;;16.50;54.04
52032;BME280;38044;45.148;39.604;2022-10-16T04:45:46;101628.44;;;16.37;52.66
52032;BME280;38044;45.148;39.604;2022-10-16T04:48:12;101717.63;;;17.30;51.71
52032;BME280;38044;45.148;39.604;2022-10-16T04:50:38;101583.00;;;16.79;50.92
52032;BME280;38044;45.148;39.604;2022-10-16T04:53:04;101734.94;;;17.79;50.73
52032;BME280;38044;45.148;39.604;2022-10-16T04:55:30;101734.69;;;17.90;50.45
52032;BME280;38044;45.148;39.604;2022-10-16T04:57:56;101752.91;;;18.60;49.49
52032;BME280;38044;45.148;39.604;2022-10-16T05:00:22;101750.91;;;18.92;48.41
52032;BME280;38044;45.148;39.604;2022-10-16T05:02:50;101723.03;;;19.04;47.95
52032;BME280;38044;45.148;39.604;2022-10-16T05:05:16;101751.09;;;19.39;47.20
52032;BME280;38044;45.148;39.604;2022-10-16T05:07:42;101766.50;;;19.35;47.14
52032;BME280;38044;45.148;39.604;2022-10-16T05:10:07;101747.56;;;19.47;47.25
52032;BME280;38044;45.148;39.604;2022-10-16T05:12:36;101730.09;;;19.22;47.14
52032;BME280;38044;45.148;39.604;2022-10-16T05:15:02;101723.19;;;18.90;47.96
52032;BME280;38044;45.148;39.604;2022-10-16T05:17:28;101645.81;;;18.16;48.43
52032;BME280;38044;45.148;39.604;2022-10-16T05:19:54;101760.09;;;18.65;48.87
52032;BME280;38044;45.148;39.604;2022-10-16T05:22:20;101769.53;;;18.50;49.47
52032;BME280;38044;45.148;39.604;2022-10-16T05:24:46;101757.31;;;18.39;49.56
52032;BME280;38044;45.148;39.604;2022-10-16T05:27:11;101752.16;;;17.97;50.16
52032;BME280;38044;45.148;39.604;2022-10-16T05:29:47;101771.25;;;18.06;50.65
52032;BME280;38044;45.148;39.604;2022-10-16T05:32:15;101731.22;;;17.75;50.68
52032;BME280;38044;45.148;39.604;2022-10-16T05:34:41;101765.59;;;17.71;51.41
52032;BME280;38044;45.148;39.604;2022-10-16T05:37:08;101610.22;;;16.52;52.02
52032;BME280;38044;45.148;39.604;2022-10-16T05:39:34;101756.91;;;17.24;52.63
52032;BME280;38044;45.148;39.604;2022-10-16T05:42:02;101660.56;;;16.58;52.96
52032;BME280;38044;45.148;39.604;2022-10-16T05:44:28;101710.31;;;16.67;53.46
52032;BME280;38044;45.148;39.604;2022-10-16T05:46:54;101740.38;;;16.84;53.80
52032;BME280;38044;45.148;39.604;2022-10-16T05:49:20;101614.97;;;16.32;53.51
52032;BME280;38044;45.148;39.604;2022-10-16T05:51:46;101762.53;;;17.73;52.36
52032;BME280;38044;45.148;39.604;2022-10-16T05:54:12;101750.41;;;18.33;50.99
52032;BME280;38044;45.148;39.604;2022-10-16T05:56:38;101777.72;;;18.59;50.66
52032;BME280;38044;45.148;39.604;2022-10-16T05:59:04;101703.91;;;18.60;49.93
52032;BME280;38044;45.148;39.604;2022-10-16T06:01:30;101747.22;;;18.88;49.37
52032;BME280;38044;45.148;39.604;2022-10-16T06:03:56;101774.03;;;19.47;48.95
52032;BME280;38044;45.148;39.604;2022-10-16T06:06:25;101780.47;;;20.24;47.48
52032;BME280;38044;45.148;39.604;2022-10-16T06:08:52;101743.78;;;20.42;46.44
52032;BME280;38044;45.148;39.604;2022-10-16T06:11:22;101749.72;;;20.44;46.33
52032;BME280;38044;45.148;39.604;2022-10-16T06:13:52;101791.91;;;20.64;45.99
52032;BME280;38044;45.148;39.604;2022-10-16T06:16:19;101794.25;;;20.36;46.67
52032;BME280;38044;45.148;39.604;2022-10-16T06:18:46;101799.28;;;20.17;47.35
52032;BME280;38044;45.148;39.604;2022-10-16T06:21:17;101792.84;;;20.21;47.82
52032;BME280;38044;45.148;39.604;2022-10-16T06:23:44;101769.31;;;19.99;47.30
52032;BME280;38044;45.148;39.604;2022-10-16T06:26:14;101639.56;;;19.64;47.19
52032;BME280;38044;45.148;39.604;2022-10-16T06:28:40;101800.06;;;21.24;45.68
52032;BME280;38044;45.148;39.604;2022-10-16T06:31:07;101783.47;;;21.50;45.20
52032;BME280;38044;45.148;39.604;2022-10-16T06:33:34;101788.88;;;21.38;44.78
52032;BME280;38044;45.148;39.604;2022-10-16T06:36:06;101647.84;;;20.53;45.03
52032;BME280;38044;45.148;39.604;2022-10-16T06:38:32;101799.91;;;21.20;45.70
52032;BME280;38044;45.148;39.604;2022-10-16T06:40:58;101681.16;;;20.08;47.19
52032;BME280;38044;45.148;39.604;2022-10-16T06:43:24;101771.66;;;20.18;47.68
52032;BME280;38044;45.148;39.604;2022-10-16T06:45:54;101794.16;;;20.15;48.45
52032;BME280;38044;45.148;39.604;2022-10-16T06:48:21;101795.22;;;20.40;48.21
52032;BME280;38044;45.148;39.604;2022-10-16T06:51:00;101773.16;;;21.05;46.73
52032;BME280;38044;45.148;39.604;2022-10-16T06:53:29;101792.38;;;21.59;45.96
52032;BME280;38044;45.148;39.604;2022-10-16T06:55:55;101783.13;;;21.85;45.52
52032;BME280;38044;45.148;39.604;2022-10-16T06:58:21;101801.78;;;22.16;45.10
52032;BME280;38044;45.148;39.604;2022-10-16T07:00:48;101790.97;;;22.19;45.14
52032;BME280;38044;45.148;39.604;2022-10-16T07:03:14;101669.94;;;21.56;44.63
52032;BME280;38044;45.148;39.604;2022-10-16T07:05:41;101782.53;;;22.49;44.76
52032;BME280;38044;45.148;39.604;2022-10-16T07:08:08;101806.56;;;22.52;44.26
52032;BME280;38044;45.148;39.604;2022-10-16T07:10:34;101787.56;;;22.35;44.47
52032;BME280;38044;45.148;39.604;2022-10-16T07:13:00;101720.25;;;22.21;44.10
52032;BME280;38044;45.148;39.604;2022-10-16T07:15:26;101789.13;;;23.22;43.73
52032;BME280;38044;45.148;39.604;2022-10-16T07:17:52;101751.66;;;23.13;43.08
52032;BME280;38044;45.148;39.604;2022-10-16T07:20:19;101816.78;;;23.16;43.17
52032;BME280;38044;45.148;39.604;2022-10-16T07:22:45;101798.06;;;23.06;43.46
52032;BME280;38044;45.148;39.604;2022-10-16T07:25:11;101791.34;;;21.97;45.25
52032;BME280;38044;45.148;39.604;2022-10-16T07:27:37;101805.84;;;22.67;44.51
52032;BME280;38044;45.148;39.604;2022-10-16T07:30:04;101801.63;;;22.58;44.56
52032;BME280;38044;45.148;39.604;2022-10-16T07:32:31;101808.13;;;22.65;44.48
52032;BME280;38044;45.148;39.604;2022-10-16T07:34:57;101739.34;;;21.97;44.58
52032;BME280;38044;45.148;39.604;2022-10-16T07:37:23;101693.41;;;21.57;45.10
52032;BME280;38044;45.148;39.604;2022-10-16T07:39:48;101670.06;;;21.26;45.02
52032;BME280;38044;45.148;39.604;2022-10-16T07:42:14;101775.09;;;21.04;46.79
52032;BME280;38044;45.148;39.604;2022-10-16T07:44:40;101827.94;;;20.58;48.74
52032;BME280;38044;45.148;39.604;2022-10-16T07:47:06;101814.78;;;20.42;49.13
52032;BME280;38044;45.148;39.604;2022-10-16T07:49:32;101821.47;;;20.62;49.15
52032;BME280;38044;45.148;39.604;2022-10-16T07:51:58;101736.16;;;20.27;48.75
52032;BME280;38044;45.148;39.604;2022-10-16T07:54:24;101772.03;;;20.46;48.49
52032;BME280;38044;45.148;39.604;2022-10-16T07:56:50;101794.41;;;20.78;48.82
52032;BME280;38044;45.148;39.604;2022-10-16T07:59:16;101784.13;;;20.75;48.32
52032;BME280;38044;45.148;39.604;2022-10-16T08:01:42;101773.50;;;21.24;47.42
52032;BME280;38044;45.148;39.604;2022-10-16T08:04:08;101810.59;;;21.88;46.50
52032;BME280;38044;45.148;39.604;2022-10-16T08:06:36;101812.78;;;22.40;45.70
52032;BME280;38044;45.148;39.604;2022-10-16T08:09:03;101791.13;;;22.72;44.82
52032;BME280;38044;45.148;39.604;2022-10-16T08:11:29;101821.34;;;23.25;44.15
52032;BME280;38044;45.148;39.604;2022-10-16T08:13:55;101809.75;;;23.72;42.89
52032;BME280;38044;45.148;39.604;2022-10-16T08:16:20;101815.34;;;24.35;42.42
52032;BME280;38044;45.148;39.604;2022-10-16T08:18:46;101823.63;;;24.86;40.66
52032;BME280;38044;45.148;39.604;2022-10-16T08:21:16;101794.66;;;25.24;39.83
52032;BME280;38044;45.148;39.604;2022-10-16T08:23:42;101726.00;;;24.41;40.73
52032;BME280;38044;45.148;39.604;2022-10-16T08:26:10;101835.56;;;25.45;39.67
52032;BME280;38044;45.148;39.604;2022-10-16T08:28:36;101703.44;;;23.85;40.93
52032;BME280;38044;45.148;39.604;2022-10-16T08:33:32;101771.00;;;23.89;41.62
52032;BME280;38044;45.148;39.604;2022-10-16T08:36:00;101814.50;;;23.87;41.98
52032;BME280;38044;45.148;39.604;2022-10-16T08:38:26;101816.25;;;23.79;42.08
52032;BME280;38044;45.148;39.604;2022-10-16T08:40:55;101689.44;;;22.24;43.45
52032;BME280;38044;45.148;39.604;2022-10-16T08:48:50;101786.44;;;22.36;44.05
52032;BME280;38044;45.148;39.604;2022-10-16T08:51:37;101841.22;;;22.23;45.53
52032;BME280;38044;45.148;39.604;2022-10-16T08:54:24;101827.31;;;22.41;45.16
52032;BME280;38044;45.148;39.604;2022-10-16T08:56:54;101830.06;;;22.53;44.95
52032;BME280;38044;45.148;39.604;2022-10-16T08:59:21;101731.59;;;21.99;45.01
52032;BME280;38044;45.148;39.604;2022-10-16T09:01:49;101829.06;;;22.12;45.73
52032;BME280;38044;45.148;39.604;2022-10-16T09:07:12;101661.28;;;21.54;45.57
52032;BME280;38044;45.148;39.604;2022-10-16T09:09:49;101830.16;;;23.18;43.98
52032;BME280;38044;45.148;39.604;2022-10-16T09:23:37;101825.47;;;22.94;44.20
52032;BME280;38044;45.148;39.604;2022-10-16T09:26:05;101747.84;;;22.65;44.12
52032;BME280;38044;45.148;39.604;2022-10-16T09:28:31;101831.38;;;23.33;43.71
52032;BME280;38044;45.148;39.604;2022-10-16T09:30:57;101825.69;;;23.54;43.66
52032;BME280;38044;45.148;39.604;2022-10-16T09:33:33;101801.16;;;23.45;43.25
52032;BME280;38044;45.148;39.604;2022-10-16T09:35:59;101796.66;;;23.25;43.93
52032;BME280;38044;45.148;39.604;2022-10-16T09:38:30;101780.38;;;23.04;43.96
52032;BME280;38044;45.148;39.604;2022-10-16T09:41:02;101823.44;;;23.03;44.11
52032;BME280;38044;45.148;39.604;2022-10-16T09:43:45;101817.25;;;23.06;44.22
52032;BME280;38044;45.148;39.604;2022-10-16T09:46:29;101820.00;;;22.45;45.38
52032;BME280;38044;45.148;39.604;2022-10-16T09:48:57;101696.59;;;21.26;45.79
52032;BME280;38044;45.148;39.604;2022-10-16T09:51:33;101688.97;;;21.52;46.04
52032;BME280;38044;45.148;39.604;2022-10-16T09:56:37;101811.56;;;22.62;45.49
52032;BME280;38044;45.148;39.604;2022-10-16T09:59:20;101825.50;;;22.69;44.75
52032;BME280;38044;45.148;39.604;2022-10-16T10:04:14;101660.78;;;21.06;46.26
52032;BME280;38044;45.148;39.604;2022-10-16T10:06:48;101767.66;;;22.01;46.07
52032;BME280;38044;45.148;39.604;2022-10-16T10:09:47;101821.34;;;22.26;46.52
52032;BME280;38044;45.148;39.604;2022-10-16T10:12:23;101786.25;;;21.95;45.83
52032;BME280;38044;45.148;39.604;2022-10-16T10:15:12;101706.88;;;21.08;47.23
52032;BME280;38044;45.148;39.604;2022-10-16T10:17:49;101808.81;;;21.38;48.03
52032;BME280;38044;45.148;39.604;2022-10-16T10:20:29;101672.53;;;19.97;49.27
52032;BME280;38044;45.148;39.604;2022-10-16T10:22:56;101820.28;;;20.81;49.25
52032;BME280;38044;45.148;39.604;2022-10-16T10:31:33;101816.44;;;20.35;50.38
52032;BME280;38044;45.148;39.604;2022-10-16T10:36:39;101814.22;;;20.19;50.69
52032;BME280;38044;45.148;39.604;2022-10-16T11:01:29;101673.19;;;18.86;52.54
52032;BME280;38044;45.148;39.604;2022-10-16T11:11:17;101818.63;;;19.68;52.34
52032;BME280;38044;45.148;39.604;2022-10-16T11:14:02;101724.78;;;18.91;52.96
52032;BME280;38044;45.148;39.604;2022-10-16T11:17:01;101788.75;;;19.20;52.53
52032;BME280;38044;45.148;39.604;2022-10-16T11:27:44;101807.69;;;19.25;53.58
52032;BME280;38044;45.148;39.604;2022-10-16T11:30:20;101800.94;;;19.22;53.32
52032;BME280;38044;45.148;39.604;2022-10-16T11:35:51;101813.47;;;19.23;53.71
52032;BME280;38044;45.148;39.604;2022-10-16T11:38:43;101777.03;;;18.93;53.94
52032;BME280;38044;45.148;39.604;2022-10-16T11:43:49;101830.91;;;19.05;54.37
52032;BME280;38044;45.148;39.604;2022-10-16T11:46:20;101795.13;;;18.80;54.92
52032;BME280;38044;45.148;39.604;2022-10-16T11:49:11;101828.19;;;19.05;54.71
52032;BME280;38044;45.148;39.604;2022-10-16T11:51:57;101698.47;;;18.12;55.03
52032;BME280;38044;45.148;39.604;2022-10-16T11:54:45;101838.25;;;18.87;55.18
52032;BME280;38044;45.148;39.604;2022-10-16T11:57:19;101831.50;;;18.84;55.40
52032;BME280;38044;45.148;39.604;2022-10-16T12:00:09;101752.50;;;18.36;55.47
52032;BME280;38044;45.148;39.604;2022-10-16T12:02:50;101709.78;;;18.05;55.38
52032;BME280;38044;45.148;39.604;2022-10-16T12:05:39;101869.16;;;18.82;55.24
52032;BME280;38044;45.148;39.604;2022-10-16T12:08:14;101842.97;;;18.73;55.90
52032;BME280;38044;45.148;39.604;2022-10-16T12:10:44;101851.19;;;18.81;55.51
52032;BME280;38044;45.148;39.604;2022-10-16T12:16:06;101808.97;;;18.61;54.98
52032;BME280;38044;45.148;39.604;2022-10-16T12:18:32;101850.97;;;18.69;55.29
52032;BME280;38044;45.148;39.604;2022-10-16T12:20:59;101850.94;;;18.60;55.54
52032;BME280;38044;45.148;39.604;2022-10-16T12:23:30;101842.19;;;18.41;55.82
52032;BME280;38044;45.148;39.604;2022-10-16T12:25:59;101857.31;;;18.56;55.67
52032;BME280;38044;45.148;39.604;2022-10-16T12:28:29;101829.97;;;18.30;55.70
52032;BME280;38044;45.148;39.604;2022-10-16T12:31:02;101861.38;;;18.36;55.80
52032;BME280;38044;45.148;39.604;2022-10-16T12:33:35;101824.44;;;18.12;55.85
52032;BME280;38044;45.148;39.604;2022-10-16T12:36:05;101755.69;;;17.53;55.70
52032;BME280;38044;45.148;39.604;2022-10-16T12:38:53;101865.75;;;18.14;55.40
52032;BME280;38044;45.148;39.604;2022-10-16T12:41:30;101872.22;;;18.05;55.46
52032;BME280;38044;45.148;39.604;2022-10-16T12:43:56;101873.09;;;17.91;55.07
52032;BME280;38044;45.148;39.604;2022-10-16T12:46:35;101855.78;;;17.73;55.05
52032;BME280;38044;45.148;39.604;2022-10-16T12:51:54;101872.38;;;17.63;55.48
52032;BME280;38044;45.148;39.604;2022-10-16T13:02:21;101859.53;;;17.41;55.62
52032;BME280;38044;45.148;39.604;2022-10-16T13:05:11;101859.72;;;17.31;55.89
52032;BME280;38044;45.148;39.604;2022-10-16T13:08:10;101854.72;;;17.24;55.80
52032;BME280;38044;45.148;39.604;2022-10-16T13:11:11;101886.88;;;17.45;56.16
52032;BME280;38044;45.148;39.604;2022-10-16T13:14:01;101888.91;;;17.39;55.96
52032;BME280;38044;45.148;39.604;2022-10-16T13:24:26;101895.19;;;17.12;56.80
52032;BME280;38044;45.148;39.604;2022-10-16T13:27:05;101894.41;;;17.11;56.89
52032;BME280;38044;45.148;39.604;2022-10-16T13:29:33;101845.50;;;16.84;57.08
52032;BME280;38044;45.148;39.604;2022-10-16T13:32:07;101895.72;;;17.14;56.78
52032;BME280;38044;45.148;39.604;2022-10-16T13:34:46;101791.97;;;16.43;57.11
52032;BME280;38044;45.148;39.604;2022-10-16T13:37:22;101896.41;;;17.06;57.82
52032;BME280;38044;45.148;39.604;2022-10-16T13:39:49;101754.81;;;16.11;57.84
52032;BME280;38044;45.148;39.604;2022-10-16T13:42:33;101906.25;;;17.02;57.88
52032;BME280;38044;45.148;39.604;2022-10-16T13:44:59;101896.91;;;16.80;58.76
52032;BME280;38044;45.148;39.604;2022-10-16T13:47:28;101800.44;;;16.09;60.57
52032;BME280;38044;45.148;39.604;2022-10-16T13:50:33;101775.19;;;15.94;61.09
52032;BME280;38044;45.148;39.604;2022-10-16T13:53:06;101916.91;;;16.84;61.59
52032;BME280;38044;45.148;39.604;2022-10-16T13:55:32;101790.69;;;15.94;61.76
52032;BME280;38044;45.148;39.604;2022-10-16T13:58:10;101895.72;;;16.67;61.84
52032;BME280;38044;45.148;39.604;2022-10-16T14:00:37;101794.25;;;15.89;62.35
52032;BME280;38044;45.148;39.604;2022-10-16T14:03:13;101890.66;;;16.47;60.98
52032;BME280;38044;45.148;39.604;2022-10-16T14:05:51;101855.63;;;16.18;60.23
52032;BME280;38044;45.148;39.604;2022-10-16T14:08:17;101934.69;;;16.44;60.39
52032;BME280;38044;45.148;39.604;2022-10-16T14:10:48;101775.59;;;15.50;60.46
52032;BME280;38044;45.148;39.604;2022-10-16T14:13:19;101912.72;;;16.27;60.61
52032;BME280;38044;45.148;39.604;2022-10-16T14:15:50;101919.59;;;16.38;60.83
52032;BME280;38044;45.148;39.604;2022-10-16T14:18:22;101929.41;;;16.34;62.05
52032;BME280;38044;45.148;39.604;2022-10-16T14:20:49;101922.25;;;16.24;62.52
52032;BME280;38044;45.148;39.604;2022-10-16T14:23:35;101931.84;;;16.35;63.09
52032;BME280;38044;45.148;39.604;2022-10-16T14:28:37;101808.50;;;15.43;63.62
52032;BME280;38044;45.148;39.604;2022-10-16T14:33:49;101929.16;;;16.16;64.00
52032;BME280;38044;45.148;39.604;2022-10-16T14:36:16;101932.19;;;16.15;64.16
52032;BME280;38044;45.148;39.604;2022-10-16T14:41:22;101918.94;;;15.94;64.38
52032;BME280;38044;45.148;39.604;2022-10-16T14:44:04;101920.00;;;15.93;64.48
52032;BME280;38044;45.148;39.604;2022-10-16T14:46:35;101937.91;;;15.94;64.75
52032;BME280;38044;45.148;39.604;2022-10-16T14:51:38;101939.56;;;15.90;64.71
52032;BME280;38044;45.148;39.604;2022-10-16T14:54:04;101843.09;;;15.27;65.13
52032;BME280;38044;45.148;39.604;2022-10-16T14:56:45;101919.84;;;15.66;65.23
52032;BME280;38044;45.148;39.604;2022-10-16T14:59:28;101932.88;;;15.64;65.04
52032;BME280;38044;45.148;39.604;2022-10-16T15:04:43;101932.41;;;15.57;65.41
52032;BME280;38044;45.148;39.604;2022-10-16T15:07:08;101962.06;;;15.72;65.59
52032;BME280;38044;45.148;39.604;2022-10-16T15:09:34;101926.03;;;15.47;65.56
52032;BME280;38044;45.148;39.604;2022-10-16T15:12:00;101933.34;;;15.47;65.68
52032;BME280;38044;45.148;39.604;2022-10-16T15:14:26;101922.13;;;15.35;65.80
52032;BME280;38044;45.148;39.604;2022-10-16T15:16:52;101935.16;;;15.32;65.83